Time;durP1;ratioP1;P1;durP2;ratioP2;P2;SDS_P1;SDS_P2;PMS_P1;PMS_P2;Temp;Humidity;BMP_temperature;BMP_pressure;BME280_temperature;BME280_humidity;BME280_pressure;Samples;Min_cycle;Max_cycle;Signal;HPM_P1;HPM_P2
2023/07/12 00:02:16;;;;;;;11.12;3.70;;;26.50;99.90;;;;;;1926431;73;21114;-80
2023/07/12 00:05:09;;;;;;;10.25;3.72;;;26.50;99.90;;;;;;1932968;73;21106;-80
2023/07/12 00:10:41;;;;;;;11.30;3.92;;;26.40;99.90;;;;;;1928697;72;22213;-80
2023/07/12 00:13:32;;;;;;;11.90;4.75;;;26.40;99.90;;;;;;1912692;75;21164;-79
2023/07/12 00:16:25;;;;;;;16.82;5.00;;;26.40;99.90;;;;;;1905210;75;21158;-79
2023/07/12 00:21:56;;;;;;;13.22;5.83;;;26.20;99.90;;;;;;1920369;72;22663;-79
2023/07/12 00:24:47;;;;;;;14.43;6.05;;;26.20;99.90;;;;;;1891856;74;21198;-79
2023/07/12 00:27:38;;;;;;;12.20;6.08;;;26.20;99.90;;;;;;1892467;75;21155;-80
2023/07/12 00:30:32;;;;;;;14.33;6.78;;;26.20;99.90;;;;;;1898071;75;21173;-79
2023/07/12 00:33:25;;;;;;;20.85;7.30;;;26.20;99.90;;;;;;1896788;75;21163;-79
2023/07/12 00:36:19;;;;;;;18.57;7.28;;;26.10;99.90;;;;;;1891791;75;21106;-79
2023/07/12 00:39:14;;;;;;;16.35;7.75;;;26.10;99.90;;;;;;1910826;74;21102;-79
2023/07/12 00:42:12;;;;;;;19.40;9.13;;;26.10;99.90;;;;;;1919633;74;21159;-79
2023/07/12 00:45:05;;;;;;;23.00;11.10;;;26.00;99.90;;;;;;1915840;74;21145;-79
2023/07/12 00:50:35;;;;;;;18.40;10.48;;;25.90;99.90;;;;;;1947664;72;22180;-79
2023/07/12 00:56:07;;;;;;;25.90;10.82;;;25.80;99.90;;;;;;1939351;72;22576;-79
2023/07/12 00:59:01;;;;;;;17.40;9.80;;;25.80;99.90;;;;;;1902316;75;21114;-79
2023/07/12 01:01:56;;;;;;;20.90;9.68;;;25.70;99.90;;;;;;1895682;75;21114;-79
2023/07/12 01:04:50;;;;;;;16.57;9.40;;;25.70;99.90;;;;;;1898506;75;21629;-78
2023/07/12 01:07:41;;;;;;;17.25;9.80;;;25.70;99.90;;;;;;1894220;75;21059;-80
2023/07/12 01:10:32;;;;;;;18.30;9.80;;;25.60;99.90;;;;;;1900172;75;21535;-81
2023/07/12 01:13:25;;;;;;;19.42;9.68;;;25.60;99.90;;;;;;1900000;75;21134;-79
2023/07/12 01:16:20;;;;;;;18.25;9.00;;;25.60;99.90;;;;;;1898122;75;21158;-80
2023/07/12 01:19:11;;;;;;;17.40;7.22;;;25.50;99.90;;;;;;1903143;75;21113;-80
2023/07/12 01:22:03;;;;;;;18.98;6.62;;;25.50;99.90;;;;;;1906035;75;21098;-80
2023/07/12 01:24:55;;;;;;;12.93;6.10;;;25.50;99.90;;;;;;1904390;75;21111;-79
2023/07/12 01:30:27;;;;;;;13.78;5.90;;;25.50;99.90;;;;;;1937779;72;23061;-80
2023/07/12 01:35:59;;;;;;;12.28;5.00;;;25.40;99.90;;;;;;1954192;72;22178;-79
2023/07/12 01:38:52;;;;;;;12.50;5.45;;;25.40;99.90;;;;;;1925176;73;21196;-79
2023/07/12 01:41:43;;;;;;;9.90;4.42;;;25.40;99.90;;;;;;1930249;73;21176;-80
2023/07/12 01:44:36;;;;;;;14.43;5.08;;;25.30;99.90;;;;;;1917026;73;21097;-79
2023/07/12 01:47:27;;;;;;;12.40;6.22;;;25.30;99.90;;;;;;1932008;73;21129;-79
2023/07/12 01:50:19;;;;;;;15.70;6.62;;;25.30;99.90;;;;;;1938170;73;21163;-79
2023/07/12 01:55:48;;;;;;;14.15;5.90;;;25.30;99.90;;;;;;1961124;72;22224;-80
2023/07/12 01:58:40;;;;;;;13.88;4.83;;;25.40;99.90;;;;;;1921567;73;21179;-79
2023/07/12 02:01:31;;;;;;;12.45;5.17;;;25.50;99.90;;;;;;1935707;73;21607;-80
2023/07/12 02:04:24;;;;;;;13.58;4.50;;;25.50;99.90;;;;;;1918034;73;21094;-80
2023/07/12 02:07:15;;;;;;;11.05;4.22;;;25.50;99.90;;;;;;1923246;73;21628;-80
2023/07/12 02:10:49;;;;;;;9.75;3.77;;;25.60;99.90;;;;;;1921409;73;21131;-80
2023/07/12 02:13:40;;;;;;;13.62;4.20;;;25.60;99.90;;;;;;1924164;73;21148;-80
2023/07/12 02:16:50;;;;;;;10.95;3.87;;;25.60;99.90;;;;;;1923933;73;21568;-80
2023/07/12 02:25:49;;;;;;;8.95;3.33;;;26.00;99.90;;;;;;1943915;72;22261;-80
2023/07/12 02:28:41;;;;;;;12.37;4.35;;;25.90;99.90;;;;;;1883455;75;21174;-81
2023/07/12 02:31:33;;;;;;;14.15;4.60;;;26.00;99.90;;;;;;1884057;75;21581;-81
2023/07/12 02:34:25;;;;;;;15.45;4.53;;;26.10;99.90;;;;;;1886493;75;21153;-80
2023/07/12 02:37:16;;;;;;;17.10;6.62;;;26.20;99.90;;;;;;1884034;75;21716;-80
2023/07/12 02:40:10;;;;;;;15.65;6.53;;;26.20;99.90;;;;;;1863964;76;21108;-80
2023/07/12 02:43:01;;;;;;;15.88;3.98;;;26.20;99.90;;;;;;1886503;75;21189;-81
2023/07/12 02:45:53;;;;;;;14.03;5.50;;;26.20;99.90;;;;;;1912750;75;21389;-82
2023/07/12 02:48:46;;;;;;;11.43;3.72;;;26.20;99.90;;;;;;1897084;75;21075;-81
2023/07/12 02:51:37;;;;;;;17.62;4.72;;;26.20;99.90;;;;;;1886551;75;21063;-81
2023/07/12 02:54:29;;;;;;;12.20;3.92;;;26.20;99.90;;;;;;1892818;75;21428;-81
2023/07/12 02:57:21;;;;;;;14.38;4.83;;;26.20;99.90;;;;;;1886248;75;21051;-81
2023/07/12 03:00:14;;;;;;;15.88;5.12;;;26.30;99.90;;;;;;1897042;75;21517;-81
2023/07/12 03:05:44;;;;;;;13.25;5.42;;;26.30;99.90;;;;;;1933468;72;22130;-81
2023/07/12 03:11:18;;;;;;;15.72;5.80;;;26.40;99.90;;;;;;1933094;72;22256;-81
2023/07/12 03:14:09;;;;;;;12.68;4.97;;;26.40;99.90;;;;;;1901154;75;21107;-81
2023/07/12 03:17:01;;;;;;;11.45;4.40;;;26.40;99.90;;;;;;1904375;75;21614;-81
2023/07/12 03:19:53;;;;;;;17.30;5.55;;;26.40;99.90;;;;;;1910968;75;21164;-81
2023/07/12 03:22:44;;;;;;;15.03;5.22;;;26.20;99.90;;;;;;1913122;75;21082;-81
2023/07/12 03:25:36;;;;;;;18.98;5.85;;;26.10;99.90;;;;;;1886070;75;21098;-81
2023/07/12 03:31:09;;;;;;;17.02;5.20;;;25.90;99.90;;;;;;1945287;72;22208;-81
2023/07/12 03:34:02;;;;;;;12.10;4.53;;;25.70;99.90;;;;;;1926202;73;21204;-81
2023/07/12 03:36:53;;;;;;;12.45;4.33;;;25.60;99.90;;;;;;1924282;73;21152;-81
2023/07/12 03:39:44;;;;;;;16.42;5.45;;;25.50;99.90;;;;;;1924867;73;21107;-81
2023/07/12 03:42:36;;;;;;;16.42;5.80;;;25.40;99.90;;;;;;1917981;75;21213;-81
2023/07/12 03:45:28;;;;;;;18.02;5.37;;;25.50;99.90;;;;;;1930462;73;21051;-81
2023/07/12 03:51:00;;;;;;;12.40;5.40;;;25.50;99.90;;;;;;1916740;72;22205;-81
2023/07/12 03:53:51;;;;;;;14.30;5.70;;;25.50;99.90;;;;;;1905698;75;21137;-82
2023/07/12 03:56:42;;;;;;;14.90;5.55;;;25.60;99.90;;;;;;1885569;75;21055;-81
2023/07/12 04:02:15;;;;;;;17.62;5.65;;;25.70;99.90;;;;;;1939353;72;22181;-81
2023/07/12 04:05:07;;;;;;;14.00;5.70;;;25.60;99.90;;;;;;1908236;75;21094;-81
2023/07/12 04:10:37;;;;;;;13.45;5.05;;;25.40;99.90;;;;;;1938271;72;22145;-81
2023/07/12 04:16:09;;;;;;;14.35;5.37;;;25.40;99.90;;;;;;1944715;72;22707;-81
2023/07/12 04:21:40;;;;;;;14.70;5.58;;;25.30;99.90;;;;;;1952882;72;22149;-81
2023/07/12 04:24:31;;;;;;;12.73;5.15;;;25.30;99.90;;;;;;1889187;75;21099;-81
2023/07/12 04:30:07;;;;;;;13.83;5.62;;;25.50;99.90;;;;;;1950352;72;22246;-81
2023/07/12 04:35:40;;;;;;;11.73;5.35;;;25.40;99.90;;;;;;1945891;72;22285;-81
2023/07/12 04:38:31;;;;;;;17.57;4.95;;;25.30;99.90;;;;;;1930074;73;21094;-81
2023/07/12 04:41:27;;;;;;;19.42;5.70;;;25.30;99.90;;;;;;1928794;73;21197;-81
2023/07/12 04:44:18;;;;;;;15.43;5.40;;;25.20;99.90;;;;;;1929702;73;21650;-81
2023/07/12 04:49:49;;;;;;;14.50;5.17;;;25.20;99.90;;;;;;1950617;72;22152;-82
2023/07/12 04:52:41;;;;;;;11.55;4.78;;;25.20;99.90;;;;;;1927650;73;21144;-82
2023/07/12 04:55:32;;;;;;;13.13;5.15;;;25.10;99.90;;;;;;1919192;73;21604;-82
2023/07/12 04:58:24;;;;;;;11.28;4.58;;;25.20;99.90;;;;;;1935288;73;21179;-82
2023/07/12 05:01:15;;;;;;;18.10;4.90;;;25.30;99.90;;;;;;1919975;73;21089;-82
2023/07/12 05:06:45;;;;;;;10.70;4.55;;;25.30;99.90;;;;;;1932253;72;22382;-81
2023/07/12 05:12:16;;;;;;;15.72;5.15;;;25.40;99.90;;;;;;1950990;72;22519;-81
2023/07/12 05:15:11;;;;;;;12.07;4.95;;;25.40;99.90;;;;;;1900509;74;21180;-79
2023/07/12 05:20:41;;;;;;;14.95;5.33;;;25.10;99.90;;;;;;1941234;72;22128;-80
2023/07/12 05:23:32;;;;;;;12.15;5.10;;;24.90;99.90;;;;;;1917539;73;21187;-80
2023/07/12 05:26:24;;;;;;;12.15;5.05;;;24.80;99.90;;;;;;1943326;73;21147;-79
2023/07/12 05:29:16;;;;;;;15.72;4.90;;;24.70;99.90;;;;;;1920584;73;21098;-79
2023/07/12 05:32:08;;;;;;;11.18;5.15;;;24.70;99.90;;;;;;1918749;73;21129;-79
2023/07/12 05:35:00;;;;;;;12.53;5.28;;;24.80;99.90;;;;;;1932578;73;21148;-79
2023/07/12 05:40:30;;;;;;;23.47;5.53;;;24.50;99.90;;;;;;1945539;72;22192;-79
2023/07/12 05:46:06;;;;;;;13.65;5.53;;;24.70;99.90;;;;;;1924875;72;22171;-79
2023/07/12 05:51:43;;;;;;;14.63;5.20;;;24.70;99.90;;;;;;1954208;72;22123;-79
2023/07/12 05:54:33;;;;;;;12.82;5.42;;;24.80;99.90;;;;;;1939855;73;21180;-79
2023/07/12 05:57:25;;;;;;;13.43;5.17;;;24.90;99.90;;;;;;1921428;73;21176;-79
2023/07/12 06:00:21;;;;;;;12.40;5.58;;;25.00;99.90;;;;;;1930280;73;21102;-78
2023/07/12 06:05:52;;;;;;;16.50;5.58;;;25.20;99.90;;;;;;1945154;72;22142;-79
2023/07/12 06:08:43;;;;;;;18.45;5.60;;;25.30;99.90;;;;;;1937277;73;21173;-79
2023/07/12 06:11:35;;;;;;;14.28;5.40;;;25.40;99.90;;;;;;1941801;73;21168;-78
2023/07/12 06:17:06;;;;;;;13.50;5.00;;;25.50;99.90;;;;;;1962413;72;22224;-78
2023/07/12 06:22:41;;;;;;;14.45;5.15;;;25.50;99.90;;;;;;1948817;72;22096;-79
2023/07/12 06:28:12;;;;;;;14.20;4.62;;;25.50;99.90;;;;;;1945115;72;22213;-80
2023/07/12 06:31:05;;;;;;;18.17;5.25;;;25.60;99.90;;;;;;1910222;75;21229;-79
2023/07/12 06:36:36;;;;;;;13.28;4.53;;;25.60;99.90;;;;;;1937196;72;22256;-79
2023/07/12 06:39:28;;;;;;;24.32;4.90;;;25.70;99.90;;;;;;1912889;75;21098;-80
2023/07/12 06:42:19;;;;;;;11.22;4.75;;;25.70;99.90;;;;;;1909724;75;21530;-79
2023/07/12 06:47:52;;;;;;;15.30;5.20;;;25.90;99.90;;;;;;1945047;72;22187;-80
2023/07/12 06:50:44;;;;;;;18.52;4.80;;;26.00;99.90;;;;;;1894904;75;21083;-80
2023/07/12 06:53:36;;;;;;;15.40;4.47;;;26.10;99.90;;;;;;1892496;75;21115;-80
2023/07/12 06:56:27;;;;;;;14.65;4.42;;;26.10;99.90;;;;;;1902879;75;21101;-79
2023/07/12 07:01:57;;;;;;;12.05;4.12;;;26.40;99.90;;;;;;1947795;72;22254;-78
2023/07/12 07:04:48;;;;;;;12.50;4.10;;;26.50;99.90;;;;;;1897320;75;21164;-79
2023/07/12 07:07:40;;;;;;;13.28;4.55;;;26.50;99.90;;;;;;1891272;75;21134;-79
2023/07/12 07:10:31;;;;;;;13.53;4.25;;;26.50;99.90;;;;;;1915802;75;21086;-79
2023/07/12 07:16:03;;;;;;;12.70;4.85;;;26.50;99.90;;;;;;1950268;72;22131;-79
2023/07/12 07:21:33;;;;;;;22.32;5.15;;;26.50;99.90;;;;;;1940076;72;22165;-79
2023/07/12 07:24:24;;;;;;;17.75;4.67;;;26.50;99.90;;;;;;1929089;73;21102;-79
2023/07/12 07:27:17;;;;;;;15.70;4.47;;;26.70;99.90;;;;;;1930839;73;21164;-79
2023/07/12 07:30:10;;;;;;;13.58;4.10;;;26.80;99.90;;;;;;1929796;73;21097;-79
2023/07/12 07:33:01;;;;;;;17.92;4.35;;;26.90;99.90;;;;;;1918199;73;21601;-79
2023/07/12 07:35:53;;;;;;;18.05;4.78;;;26.80;99.90;;;;;;1928873;73;21106;-79
2023/07/12 07:41:24;;;;;;;12.55;4.15;;;26.70;99.90;;;;;;1932228;72;22223;-79
2023/07/12 07:44:15;;;;;;;13.98;4.42;;;26.80;99.90;;;;;;1895312;75;21135;-79
2023/07/12 07:47:08;;;;;;;10.08;4.25;;;26.70;99.90;;;;;;1895720;75;21614;-79
2023/07/12 07:50:00;;;;;;;12.23;4.12;;;26.70;99.90;;;;;;1883813;75;21215;-78
2023/07/12 07:52:52;;;;;;;15.93;4.45;;;26.70;99.90;;;;;;1884743;75;21129;-80
2023/07/12 07:55:44;;;;;;;12.07;4.10;;;26.70;99.90;;;;;;1913857;75;21671;-80
2023/07/12 07:58:37;;;;;;;12.68;3.92;;;26.80;99.90;;;;;;1900052;75;21082;-80
2023/07/12 08:01:29;;;;;;;11.60;3.92;;;26.80;99.90;;;;;;1899237;75;21573;-79
2023/07/12 08:04:20;;;;;;;12.58;4.42;;;26.70;99.90;;;;;;1896651;75;21681;-79
2023/07/12 08:07:13;;;;;;;9.80;3.92;;;26.60;99.90;;;;;;1894682;75;21059;-79
2023/07/12 08:10:06;;;;;;;11.40;4.53;;;26.60;99.90;;;;;;1886286;75;21164;-79
2023/07/12 08:12:57;;;;;;;15.32;4.45;;;26.50;99.90;;;;;;1884744;75;21174;-80
2023/07/12 08:18:30;;;;;;;13.90;4.47;;;26.70;99.90;;;;;;1927792;72;22744;-79
2023/07/12 08:21:22;;;;;;;15.93;4.40;;;26.80;99.90;;;;;;1916604;74;21126;-80
2023/07/12 08:24:13;;;;;;;12.70;4.22;;;26.80;99.90;;;;;;1919402;74;21079;-80
2023/07/12 08:27:06;;;;;;;14.55;4.45;;;26.80;99.90;;;;;;1898830;74;21131;-80
2023/07/12 08:29:59;;;;;;;12.98;4.20;;;26.80;99.90;;;;;;1907704;74;21128;-80
2023/07/12 08:32:51;;;;;;;11.15;3.80;;;27.00;99.90;;;;;;1910347;74;21118;-80
2023/07/12 08:35:44;;;;;;;10.13;3.40;;;27.00;99.90;;;;;;1928856;74;21118;-79
2023/07/12 08:38:37;;;;;;;14.87;4.35;;;27.10;99.90;;;;;;1914215;74;21221;-79
2023/07/12 08:41:29;;;;;;;14.53;4.40;;;27.10;99.90;;;;;;1894563;74;21122;-80
2023/07/12 08:44:21;;;;;;;12.60;4.03;;;27.30;99.90;;;;;;1911194;74;21100;-79
2023/07/12 08:47:16;;;;;;;17.80;4.65;;;27.40;99.90;;;;;;1883108;75;21140;-79
2023/07/12 08:50:14;;;;;;;15.00;5.40;;;27.50;99.90;;;;;;1914490;75;21117;-80
2023/07/12 08:53:24;;;;;;;11.25;4.03;;;27.60;99.90;;;;;;1872398;76;21166;-79
2023/07/12 08:56:18;;;;;;;14.80;4.42;;;27.60;99.90;;;;;;1887055;75;21107;-79
2023/07/12 08:59:13;;;;;;;14.00;4.42;;;27.70;99.90;;;;;;1890299;74;21198;-79
2023/07/12 09:02:07;;;;;;;17.80;4.33;;;27.70;99.90;;;;;;1890109;74;21095;-79
2023/07/12 09:05:01;;;;;;;16.20;4.65;;;27.80;99.90;;;;;;1927891;74;21172;-79
2023/07/12 09:07:56;;;;;;;12.40;4.53;;;27.80;99.90;;;;;;1883610;75;21103;-80
2023/07/12 09:10:54;;;;;;;12.40;4.17;;;27.90;99.90;;;;;;1817399;78;21146;-79
2023/07/12 09:13:46;;;;;;;11.57;4.53;;;27.90;99.90;;;;;;1889715;74;21196;-80
2023/07/12 09:16:38;;;;;;;15.25;4.72;;;28.00;99.90;;;;;;1908158;74;21098;-79
2023/07/12 09:19:33;;;;;;;13.55;4.00;;;28.00;99.90;;;;;;1919491;74;21120;-79
2023/07/12 09:22:25;;;;;;;11.45;4.10;;;28.10;99.90;;;;;;1901509;74;21145;-79
2023/07/12 09:25:21;;;;;;;11.85;4.00;;;28.10;99.90;;;;;;1918692;74;21216;-80
2023/07/12 09:28:14;;;;;;;14.00;4.47;;;28.10;99.90;;;;;;1919946;74;21102;-79
2023/07/12 09:31:14;;;;;;;14.30;4.50;;;28.20;99.90;;;;;;1919531;74;21095;-80
2023/07/12 09:34:08;;;;;;;15.55;4.22;;;28.30;99.90;;;;;;1919344;74;21131;-79
2023/07/12 09:37:01;;;;;;;14.03;4.37;;;28.40;99.90;;;;;;1919643;74;21080;-80
2023/07/12 09:39:56;;;;;;;17.62;3.80;;;28.50;99.90;;;;;;1884465;75;21222;-80
2023/07/12 09:42:50;;;;;;;18.62;4.60;;;28.60;99.90;;;;;;1895229;75;21064;-79
2023/07/12 09:45:44;;;;;;;16.75;4.85;;;28.60;99.90;;;;;;1901189;74;21604;-80
2023/07/12 09:48:41;;;;;;;16.20;4.45;;;28.70;99.90;;;;;;1890768;74;21137;-80
2023/07/12 09:51:36;;;;;;;13.62;4.00;;;28.80;99.90;;;;;;1901997;74;21181;-80
2023/07/12 09:54:38;;;;;;;17.62;4.28;;;28.70;99.90;;;;;;1885024;75;21139;-80
2023/07/12 10:00:23;;;;;;;14.83;4.08;;;28.70;99.90;;;;;;1957305;72;22167;-80
2023/07/12 10:03:22;;;;;;;12.97;3.90;;;28.80;99.90;;;;;;1893993;75;21172;-79
2023/07/12 10:06:16;;;;;;;12.30;4.25;;;28.90;99.90;;;;;;1883961;75;21346;-79
2023/07/12 10:09:11;;;;;;;15.20;4.10;;;28.80;99.90;;;;;;1898515;75;21596;-79
2023/07/12 10:12:05;;;;;;;11.15;4.45;;;28.90;99.90;;;;;;1906875;75;21126;-79
2023/07/12 10:14:58;;;;;;;14.93;4.65;;;29.00;99.90;;;;;;1906270;75;21130;-80
2023/07/12 10:17:49;;;;;;;12.03;4.42;;;29.00;99.90;;;;;;1883627;75;21506;-79
2023/07/12 10:20:40;;;;;;;16.48;4.90;;;29.10;99.90;;;;;;1900582;75;21657;-79
2023/07/12 10:23:35;;;;;;;14.43;4.92;;;29.10;99.90;;;;;;1895221;75;21110;-79
2023/07/12 10:26:27;;;;;;;14.75;4.03;;;29.10;99.90;;;;;;1894713;75;21094;-79
2023/07/12 10:29:28;;;;;;;14.68;4.83;;;29.10;99.90;;;;;;1893315;75;21160;-79
2023/07/12 10:32:23;;;;;;;17.80;5.45;;;29.10;99.90;;;;;;1904287;75;21095;-80
2023/07/12 10:35:21;;;;;;;12.03;4.58;;;29.20;99.90;;;;;;1880713;75;21168;-80
2023/07/12 10:38:16;;;;;;;17.90;4.70;;;29.30;99.90;;;;;;1896089;75;21085;-80
2023/07/12 10:41:10;;;;;;;15.98;4.60;;;29.30;99.90;;;;;;1886943;75;21197;-80
2023/07/12 10:44:07;;;;;;;15.20;4.45;;;29.40;99.90;;;;;;1887154;75;21110;-80
2023/07/12 10:47:01;;;;;;;15.70;4.70;;;29.50;99.90;;;;;;1895467;75;21070;-80
2023/07/12 10:49:58;;;;;;;15.05;4.40;;;29.60;99.90;;;;;;1883759;75;21171;-80
2023/07/12 10:53:05;;;;;;;16.50;4.30;;;29.60;99.90;;;;;;1896409;75;21267;-79
2023/07/12 10:56:15;;;;;;;;;;;29.60;99.90;;;;;;1897932;75;21103;-80
2023/07/12 10:59:11;;;;;;;17.07;4.30;;;29.60;99.90;;;;;;1892859;74;20739;-80
2023/07/12 11:04:58;;;;;;;19.30;4.90;;;29.70;99.90;;;;;;1951586;72;22696;-79
2023/07/12 11:07:54;;;;;;;14.58;4.72;;;29.60;99.90;;;;;;1902464;75;21164;-79
2023/07/12 11:10:45;;;;;;;16.85;4.17;;;29.70;99.90;;;;;;1897496;75;21098;-79
2023/07/12 11:13:39;;;;;;;15.85;4.87;;;29.70;99.90;;;;;;1894815;75;21236;-79
2023/07/12 11:16:32;;;;;;;15.32;4.47;;;29.80;99.90;;;;;;1890376;75;21169;-79
2023/07/12 11:19:44;;;;;;;16.30;4.95;;;30.00;99.90;;;;;;1904903;75;21158;-79
2023/07/12 11:25:57;;;;;;;16.25;4.85;;;30.00;99.90;;;;;;1956798;72;22216;-79
2023/07/12 11:28:47;;;;;;;9.15;3.60;;;30.10;99.90;;;;;;1883863;76;21170;-79
2023/07/12 11:31:41;;;;;;;13.03;4.40;;;30.00;99.90;;;;;;1916806;75;21133;-79
2023/07/12 11:34:35;;;;;;;17.10;5.08;;;29.90;99.90;;;;;;1894566;75;21176;-79
2023/07/12 11:37:30;;;;;;;12.90;4.25;;;29.80;99.90;;;;;;1892402;75;21294;-79
2023/07/12 11:40:24;;;;;;;16.45;4.50;;;29.90;99.90;;;;;;1881423;76;21140;-79
2023/07/12 11:46:26;;;;;;;10.38;3.98;;;30.10;99.90;;;;;;1975526;72;22142;-79
2023/07/12 11:49:20;;;;;;;16.05;4.75;;;30.20;99.90;;;;;;1929680;73;21545;-79
2023/07/12 11:52:15;;;;;;;15.43;4.12;;;30.20;99.90;;;;;;1904515;75;21379;-79
2023/07/12 11:55:14;;;;;;;14.90;4.97;;;30.30;99.90;;;;;;1926027;74;21146;-79
2023/07/12 11:58:16;;;;;;;19.87;4.62;;;30.30;99.90;;;;;;1901311;74;21093;-79
2023/07/12 12:01:13;;;;;;;14.55;4.90;;;30.40;99.90;;;;;;1919768;74;21106;-80
2023/07/12 12:04:07;;;;;;;14.05;4.72;;;30.40;99.90;;;;;;1915916;74;21099;-79
2023/07/12 12:07:01;;;;;;;16.35;4.90;;;30.50;99.90;;;;;;1915164;74;21502;-79
2023/07/12 12:09:54;;;;;;;13.90;4.78;;;30.50;99.90;;;;;;1913751;74;21102;-80
2023/07/12 12:12:48;;;;;;;15.58;5.08;;;30.60;99.90;;;;;;1904262;75;21125;-79
2023/07/12 12:15:42;;;;;;;19.85;4.97;;;30.60;99.90;;;;;;1904112;75;21090;-79
2023/07/12 12:18:34;;;;;;;13.93;4.53;;;30.70;99.90;;;;;;1903693;75;21063;-80
2023/07/12 12:21:27;;;;;;;12.10;4.67;;;30.70;99.90;;;;;;1904141;75;21220;-79
2023/07/12 12:24:21;;;;;;;15.38;4.70;;;30.80;99.90;;;;;;1926389;74;21645;-79
2023/07/12 12:27:19;;;;;;;14.83;4.90;;;30.80;99.90;;;;;;1903962;74;21524;-79
2023/07/12 12:30:22;;;;;;;11.50;3.95;;;30.70;99.90;;;;;;1904281;75;21192;-80
2023/07/12 12:33:25;;;;;;;14.80;5.50;;;30.70;99.90;;;;;;1904314;75;21160;-79
2023/07/12 12:36:22;;;;;;;13.08;4.53;;;30.70;99.90;;;;;;1904599;75;21102;-80
2023/07/12 12:39:21;;;;;;;9.98;4.15;;;30.60;99.90;;;;;;1904347;75;21089;-79
2023/07/12 12:42:21;;;;;;;13.30;4.80;;;30.60;99.90;;;;;;1927122;74;21090;-80
2023/07/12 12:45:13;;;;;;;14.73;5.28;;;30.50;99.90;;;;;;1924147;74;21062;-80
2023/07/12 12:48:07;;;;;;;12.68;4.15;;;30.50;99.90;;;;;;1903924;75;21617;-80
2023/07/12 12:51:00;;;;;;;11.53;4.97;;;30.50;99.90;;;;;;1925856;74;21124;-80
2023/07/12 12:53:53;;;;;;;12.82;5.30;;;30.20;99.90;;;;;;1903583;74;21191;-79
2023/07/12 12:56:46;;;;;;;13.70;5.08;;;30.30;99.90;;;;;;1903972;75;21168;-79
2023/07/12 12:59:39;;;;;;;11.93;4.55;;;30.10;99.90;;;;;;1921628;74;22159;-80
2023/07/12 13:02:32;;;;;;;10.75;4.90;;;30.10;99.90;;;;;;1916780;74;21114;-80
2023/07/12 13:08:13;;;;;;;11.95;3.72;;;30.10;99.90;;;;;;1957230;72;22599;-79
2023/07/12 13:11:07;;;;;;;12.45;5.10;;;30.00;99.90;;;;;;1885968;75;21126;-80
2023/07/12 13:14:00;;;;;;;9.95;4.15;;;29.70;99.90;;;;;;1872042;76;21110;-79
2023/07/12 13:16:53;;;;;;;14.30;4.30;;;29.60;99.90;;;;;;1872240;75;21617;-81
2023/07/12 13:19:47;;;;;;;10.88;4.60;;;29.60;99.90;;;;;;1894062;75;21184;-80
2023/07/12 13:22:38;;;;;;;9.18;3.85;;;29.60;99.90;;;;;;1872139;76;21205;-80
2023/07/12 13:25:30;;;;;;;7.85;3.80;;;29.50;99.90;;;;;;1888222;75;21559;-79
2023/07/12 13:28:22;;;;;;;8.00;4.37;;;29.40;99.90;;;;;;1857546;77;21162;-79
2023/07/12 13:31:15;;;;;;;15.72;4.62;;;29.30;99.90;;;;;;1898632;75;21103;-80
2023/07/12 13:34:08;;;;;;;10.82;4.22;;;29.20;99.90;;;;;;1881004;75;21123;-79
2023/07/12 13:37:01;;;;;;;12.45;4.53;;;29.10;99.90;;;;;;1889968;75;21135;-79
2023/07/12 13:39:53;;;;;;;8.83;3.85;;;29.00;99.90;;;;;;1884989;75;21165;-79
2023/07/12 13:42:46;;;;;;;7.92;3.72;;;29.10;99.90;;;;;;1882564;75;21181;-79
2023/07/12 13:45:39;;;;;;;10.45;4.05;;;29.00;99.90;;;;;;1879314;75;21208;-80
2023/07/12 13:48:31;;;;;;;12.63;4.30;;;29.10;99.90;;;;;;1891943;75;21703;-80
2023/07/12 13:51:24;;;;;;;8.65;3.83;;;29.10;99.90;;;;;;1886428;75;21172;-80
2023/07/12 13:54:16;;;;;;;13.15;3.90;;;29.10;99.90;;;;;;1847240;77;21166;-79
2023/07/12 13:57:11;;;;;;;8.65;4.33;;;29.10;99.90;;;;;;1882837;75;21146;-80
2023/07/12 14:00:11;;;;;;;7.67;3.10;;;28.90;99.90;;;;;;1882622;75;21631;-79
2023/07/12 14:03:01;;;;;;;11.45;4.58;;;28.90;99.90;;;;;;1890000;75;21337;-79
2023/07/12 14:05:54;;;;;;;10.95;4.08;;;28.70;99.90;;;;;;1890785;75;21209;-79
2023/07/12 14:08:47;;;;;;;9.50;4.83;;;28.70;99.90;;;;;;1893841;74;21179;-79
2023/07/12 14:11:39;;;;;;;8.98;4.28;;;28.60;99.90;;;;;;1893559;75;21084;-80
2023/07/12 14:14:30;;;;;;;8.53;3.67;;;28.70;99.90;;;;;;1892548;75;21138;-80
2023/07/12 14:17:24;;;;;;;8.63;3.85;;;28.80;99.90;;;;;;1853577;77;21173;-80
2023/07/12 14:20:16;;;;;;;9.23;4.55;;;28.70;99.90;;;;;;1903000;75;21096;-80
2023/07/12 14:23:11;;;;;;;8.48;4.58;;;28.60;99.90;;;;;;1877370;75;21091;-80
2023/07/12 14:26:02;;;;;;;10.08;4.47;;;28.60;99.90;;;;;;1892845;75;21326;-81
2023/07/12 14:28:54;;;;;;;7.42;3.50;;;28.70;99.90;;;;;;1887744;75;21068;-80
2023/07/12 14:31:47;;;;;;;9.30;4.42;;;28.80;99.90;;;;;;1882803;75;21118;-80
2023/07/12 14:34:39;;;;;;;11.12;4.37;;;28.80;99.90;;;;;;1883557;75;21136;-81
2023/07/12 14:37:32;;;;;;;12.18;4.12;;;28.50;99.90;;;;;;1882205;75;21107;-79
2023/07/12 14:43:03;;;;;;;9.58;4.10;;;28.30;99.90;;;;;;1954858;72;22150;-79
2023/07/12 14:45:54;;;;;;;6.70;4.12;;;28.20;99.90;;;;;;1895187;74;21380;-79
2023/07/12 14:48:46;;;;;;;6.83;3.65;;;28.20;99.90;;;;;;1894617;75;21135;-80
2023/07/12 14:51:39;;;;;;;7.35;3.95;;;28.20;99.90;;;;;;1898272;75;21114;-79
2023/07/12 14:54:31;;;;;;;8.23;3.55;;;28.30;99.90;;;;;;1860980;76;21137;-79
2023/07/12 14:57:25;;;;;;;6.08;3.70;;;28.30;99.90;;;;;;1894826;75;21055;-80
2023/07/12 15:00:20;;;;;;;13.25;4.12;;;28.30;99.90;;;;;;1912731;75;21103;-79
2023/07/12 15:03:19;;;;;;;10.20;3.80;;;28.30;99.90;;;;;;1883991;75;21102;-80
2023/07/12 15:06:13;;;;;;;7.28;3.65;;;28.30;99.90;;;;;;1902936;75;21132;-79
2023/07/12 15:09:05;;;;;;;7.45;3.60;;;28.00;99.90;;;;;;1897443;75;21131;-79
2023/07/12 15:11:58;;;;;;;6.75;3.40;;;27.90;99.90;;;;;;1894758;75;21180;-80
2023/07/12 15:14:51;;;;;;;8.48;3.52;;;27.80;99.90;;;;;;1894978;75;21102;-80
2023/07/12 15:17:43;;;;;;;9.50;3.90;;;27.70;99.90;;;;;;1895606;75;21183;-80
2023/07/12 15:20:36;;;;;;;8.70;3.20;;;27.60;99.90;;;;;;1899059;75;21102;-80
2023/07/12 15:23:33;;;;;;;8.50;4.42;;;27.60;99.90;;;;;;1894296;75;21090;-79
2023/07/12 15:26:23;;;;;;;8.28;3.98;;;27.40;99.90;;;;;;1894326;75;21090;-80
2023/07/12 15:29:15;;;;;;;8.85;3.87;;;27.40;99.90;;;;;;1894855;75;21129;-80
2023/07/12 15:32:12;;;;;;;7.70;3.77;;;27.30;99.90;;;;;;1898540;75;21172;-80
2023/07/12 15:35:04;;;;;;;5.60;3.80;;;27.30;99.90;;;;;;1897865;75;21105;-80
2023/07/12 15:37:58;;;;;;;5.55;3.77;;;27.20;99.90;;;;;;1894615;75;21139;-79
2023/07/12 15:40:56;;;;;;;6.28;3.80;;;27.20;99.90;;;;;;1894863;75;21086;-80
2023/07/12 15:43:49;;;;;;;6.55;3.08;;;27.10;99.90;;;;;;1904424;74;21339;-79
2023/07/12 15:46:41;;;;;;;4.45;3.42;;;27.10;99.90;;;;;;1857249;77;21113;-80
2023/07/12 15:49:35;;;;;;;6.67;3.47;;;26.90;99.90;;;;;;1910923;74;21140;-80
2023/07/12 15:52:29;;;;;;;7.03;3.58;;;26.90;99.90;;;;;;1910321;74;21094;-80
2023/07/12 15:55:20;;;;;;;5.85;4.10;;;26.70;99.90;;;;;;1910090;74;21152;-80
2023/07/12 15:58:19;;;;;;;6.40;3.52;;;26.60;99.90;;;;;;1914164;74;21073;-80
2023/07/12 16:01:17;;;;;;;7.20;4.05;;;26.60;99.90;;;;;;1913877;74;21089;-81
2023/07/12 16:04:10;;;;;;;8.75;4.05;;;26.50;99.90;;;;;;1909861;74;21085;-79
2023/07/12 16:07:01;;;;;;;6.72;3.60;;;26.40;99.90;;;;;;1909817;74;21090;-80
2023/07/12 16:09:54;;;;;;;6.35;3.30;;;26.40;99.90;;;;;;1909444;74;21159;-80
2023/07/12 16:12:45;;;;;;;6.80;3.62;;;26.30;99.90;;;;;;1915054;74;21098;-80
2023/07/12 16:15:37;;;;;;;4.50;3.47;;;26.20;99.90;;;;;;1910848;74;21109;-81
2023/07/12 16:18:30;;;;;;;5.85;3.52;;;26.20;99.90;;;;;;1903064;74;21175;-80
2023/07/12 16:21:24;;;;;;;7.12;3.50;;;26.20;99.90;;;;;;1847696;77;21108;-80
2023/07/12 16:24:18;;;;;;;6.70;3.33;;;26.20;99.90;;;;;;1917340;74;21446;-80
2023/07/12 16:27:13;;;;;;;5.62;3.40;;;26.00;99.90;;;;;;1837542;77;21616;-80
2023/07/12 16:30:06;;;;;;;7.15;3.77;;;26.00;99.90;;;;;;1909826;74;21156;-79
2023/07/12 16:33:00;;;;;;;12.53;5.08;;;25.80;99.90;;;;;;1909788;74;21115;-87
2023/07/12 16:35:52;;;;;;;16.50;5.62;;;25.10;99.90;;;;;;1929681;74;21167;-76
2023/07/12 16:38:43;;;;;;;7.25;4.03;;;23.50;99.90;;;;;;1899104;75;21162;-78
2023/07/12 16:41:37;;;;;;;8.88;4.22;;;22.30;99.90;;;;;;1913716;74;21173;-81
2023/07/12 16:44:28;;;;;;;8.80;4.60;;;21.80;99.90;;;;;;1818589;77;21206;-81
2023/07/12 16:47:22;;;;;;;7.20;5.00;;;21.80;99.90;;;;;;1904984;75;21138;-81
2023/07/12 16:50:13;;;;;;;9.08;6.00;;;21.90;99.90;;;;;;1905036;75;21149;-80